Time;durP1;ratioP1;P1;durP2;ratioP2;P2;SDS_P1;SDS_P2;PMS_P1;PMS_P2;Temp;Humidity;BMP_temperature;BMP_pressure;BME280_temperature;BME280_humidity;BME280_pressure;Samples;Min_cycle;Max_cycle;Signal;HPM_P1;HPM_P2
2022/05/11 00:01:17;;;;;;;4.63;3.58;;;;;;;21.63;46.41;97260.38;4994646;28;20493;-30
2022/05/11 00:03:43;;;;;;;5.57;3.35;;;;;;;21.72;46.41;97259.47;4994780;28;20469;-31
2022/05/11 00:06:09;;;;;;;6.18;3.85;;;;;;;21.70;46.21;97256.44;4994641;28;20393;-30
2022/05/11 00:08:34;;;;;;;7.15;3.90;;;;;;;21.70;46.27;97259.19;4994907;28;20377;-30
2022/05/11 00:11:01;;;;;;;5.70;3.60;;;;;;;21.68;46.03;97259.69;4994700;28;20037;-30
2022/05/11 00:13:28;;;;;;;6.97;3.75;;;;;;;21.71;46.38;97252.44;4994626;28;20053;-30
2022/05/11 00:15:54;;;;;;;5.88;3.30;;;;;;;21.70;46.21;97257.19;4994498;28;20056;-30
2022/05/11 00:18:19;;;;;;;7.45;3.42;;;;;;;21.72;45.97;97249.19;4994331;28;20536;-30
2022/05/11 00:20:45;;;;;;;5.97;3.72;;;;;;;21.68;46.34;97245.88;4994561;28;20033;-31
2022/05/11 00:23:10;;;;;;;4.63;3.45;;;;;;;21.73;46.16;97239.69;4994468;28;20026;-30
2022/05/11 00:25:36;;;;;;;4.93;3.50;;;;;;;21.72;45.95;97243.69;4994485;28;20023;-30
2022/05/11 00:28:01;;;;;;;4.90;3.53;;;;;;;21.63;46.35;97240.28;4994249;28;20389;-30
2022/05/11 00:30:29;;;;;;;5.95;3.70;;;;;;;21.63;46.18;97238.28;4994249;28;20030;-30
2022/05/11 00:32:59;;;;;;;5.00;3.00;;;;;;;21.61;46.28;97238.00;4994160;28;20101;-30
2022/05/11 00:35:26;;;;;;;6.07;3.58;;;;;;;21.71;46.02;97236.63;4994493;28;20060;-30
2022/05/11 00:37:51;;;;;;;4.82;3.28;;;;;;;21.66;46.22;97233.78;4994026;28;20026;-30
2022/05/11 00:40:19;;;;;;;6.47;3.03;;;;;;;21.65;46.17;97238.53;4994484;28;20030;-31
2022/05/11 00:42:45;;;;;;;5.47;3.60;;;;;;;21.67;45.88;97241.59;4993234;28;20405;-30
2022/05/11 00:45:10;;;;;;;5.22;3.35;;;;;;;21.68;46.33;97245.88;4994388;28;20036;-30
2022/05/11 00:47:59;;;;;;;6.55;3.65;;;;;;;21.62;46.19;97234.00;4994228;28;20022;-31
2022/05/11 00:50:29;;;;;;;5.72;3.92;;;;;;;21.61;45.75;97232.47;4994011;28;20049;-31
2022/05/11 00:53:00;;;;;;;5.10;3.85;;;;;;;21.61;46.04;97243.53;4999345;28;20037;-30
2022/05/11 00:55:30;;;;;;;4.32;3.35;;;;;;;21.62;45.89;97245.06;5042992;28;20400;-30
2022/05/11 00:58:04;;;;;;;5.80;3.30;;;;;;;21.64;45.81;97239.03;5044605;28;20036;-30
2022/05/11 01:00:30;;;;;;;5.05;3.72;;;;;;;21.58;46.13;97227.91;5013890;28;20021;-31
2022/05/11 01:03:10;;;;;;;4.32;3.33;;;;;;;21.58;45.81;97238.19;5013484;28;20037;-31
2022/05/11 01:05:35;;;;;;;5.80;3.95;;;;;;;21.57;46.18;97234.69;5013444;28;20021;-30
2022/05/11 01:08:01;;;;;;;4.85;3.13;;;;;;;21.57;45.80;97242.19;5013478;28;20104;-30
2022/05/11 01:10:30;;;;;;;4.53;3.67;;;;;;;21.56;46.12;97235.91;5013622;28;20091;-30
2022/05/11 01:12:58;;;;;;;4.60;3.13;;;;;;;21.56;45.85;97244.19;5013507;28;20131;-31
2022/05/11 01:15:25;;;;;;;5.10;3.28;;;;;;;21.48;46.32;97230.03;5013630;28;20083;-30
2022/05/11 01:17:52;;;;;;;5.93;3.63;;;;;;;21.55;46.09;97234.38;5013760;28;20431;-31
2022/05/11 01:20:21;;;;;;;5.30;3.17;;;;;;;21.54;46.34;97237.63;5013170;28;20119;-31
2022/05/11 01:23:07;;;;;;;5.60;3.47;;;;;;;21.51;46.16;97237.34;5013362;28;20485;-30
2022/05/11 01:25:33;;;;;;;6.72;3.53;;;;;;;21.45;46.24;97241.28;5013264;28;20461;-31
2022/05/11 01:28:14;;;;;;;6.68;3.88;;;;;;;21.49;45.96;97231.56;5013254;28;20018;-30
2022/05/11 01:30:42;;;;;;;4.03;3.10;;;;;;;21.48;46.22;97229.28;5013406;28;20065;-30
2022/05/11 01:33:12;;;;;;;4.95;3.28;;;;;;;21.41;46.27;97229.66;5013301;28;20026;-30
2022/05/11 01:36:14;;;;;;;5.10;3.15;;;;;;;21.46;46.09;97226.25;5013415;28;20037;-30
2022/05/11 01:38:44;;;;;;;7.15;3.25;;;;;;;21.43;46.01;97235.47;5013407;28;20061;-30
2022/05/11 01:41:17;;;;;;;4.05;3.30;;;;;;;21.42;46.45;97239.47;5013129;28;20416;-30
2022/05/11 01:43:42;;;;;;;6.25;3.75;;;;;;;21.44;46.33;97232.22;5013182;28;20483;-31
2022/05/11 01:46:09;;;;;;;6.65;4.32;;;;;;;21.45;46.23;97233.00;5044815;28;20033;-30
2022/05/11 01:48:34;;;;;;;5.28;3.25;;;;;;;21.44;46.34;97223.94;5013195;28;20026;-30
2022/05/11 01:51:01;;;;;;;5.15;3.83;;;;;;;21.39;46.55;97221.84;5013362;28;20392;-31
2022/05/11 01:53:27;;;;;;;6.57;3.38;;;;;;;21.40;46.29;97217.09;5013271;28;20022;-30
2022/05/11 01:55:53;;;;;;;9.48;5.00;;;;;;;21.39;46.35;97226.63;5016741;28;20034;-31
2022/05/11 01:58:20;;;;;;;6.88;4.00;;;;;;;21.35;46.42;97220.56;5016533;28;20369;-30
2022/05/11 02:00:47;;;;;;;4.82;3.45;;;;;;;21.42;45.92;97217.38;5048320;28;20392;-31
2022/05/11 02:03:13;;;;;;;5.38;3.42;;;;;;;21.40;46.05;97214.34;5016471;28;20029;-30
2022/05/11 02:08:26;;;;;;;7.00;4.03;;;;;;;21.42;46.13;97222.91;5016311;28;20021;-30
2022/05/11 02:10:51;;;;;;;6.43;3.58;;;;;;;21.37;46.31;97224.38;5016483;28;20026;-32
2022/05/11 02:13:16;;;;;;;7.20;3.20;;;;;;;21.39;46.18;97221.09;5016551;28;20381;-30
2022/05/11 02:15:42;;;;;;;7.45;3.50;;;;;;;21.37;46.20;97229.13;5016633;28;20523;-30
2022/05/11 02:18:07;;;;;;;3.67;3.28;;;;;;;21.38;46.46;97223.13;5016164;28;20392;-31
2022/05/11 02:20:34;;;;;;;4.82;3.42;;;;;;;21.35;46.55;97223.31;5016271;28;20500;-30
2022/05/11 02:22:59;;;;;;;6.15;3.65;;;;;;;21.36;46.41;97219.31;5016202;28;20384;-31
2022/05/11 02:25:26;;;;;;;7.15;3.80;;;;;;;21.32;46.43;97225.03;5016299;28;20029;-30
2022/05/11 02:27:53;;;;;;;5.70;3.50;;;;;;;21.31;46.45;97226.25;5016013;28;20156;-30
2022/05/11 02:30:27;;;;;;;4.78;3.28;;;;;;;21.33;46.09;97225.78;5016314;28;20362;-31
2022/05/11 02:32:52;;;;;;;6.88;3.60;;;;;;;21.40;46.09;97222.63;5047807;28;20061;-30
2022/05/11 02:35:20;;;;;;;5.75;3.42;;;;;;;21.28;46.39;97221.69;5015920;28;20022;-30
2022/05/11 02:37:47;;;;;;;5.80;3.30;;;;;;;21.28;46.06;97221.69;5016018;28;20030;-30
2022/05/11 02:40:16;;;;;;;4.43;3.05;;;;;;;21.27;46.31;97220.16;5015893;28;20499;-30
2022/05/11 02:42:42;;;;;;;8.23;3.50;;;;;;;21.31;46.23;97222.75;5015772;28;20101;-30
2022/05/11 02:45:09;;;;;;;5.13;3.15;;;;;;;21.24;46.07;97223.91;5047851;28;20472;-30
2022/05/11 02:47:35;;;;;;;5.72;3.20;;;;;;;21.26;46.03;97224.19;5015937;28;20026;-30
2022/05/11 02:50:03;;;;;;;5.95;3.15;;;;;;;21.21;45.94;97233.13;5015806;28;20037;-30
2022/05/11 02:52:30;;;;;;;4.25;2.80;;;;;;;21.22;45.80;97240.16;5015947;28;20097;-31
2022/05/11 02:54:55;;;;;;;6.45;3.35;;;;;;;21.16;46.04;97242.78;5015885;28;20030;-30
2022/05/11 02:57:21;;;;;;;6.38;3.33;;;;;;;21.17;46.19;97238.81;5015606;28;20026;-30
2022/05/11 02:59:49;;;;;;;4.55;3.40;;;;;;;21.20;46.08;97241.88;5015482;28;20028;-30
2022/05/11 03:02:17;;;;;;;7.30;2.95;;;;;;;21.19;45.92;97245.88;5015263;28;20026;-30
2022/05/11 03:04:42;;;;;;;6.63;3.42;;;;;;;21.21;45.98;97248.91;5015260;28;20033;-30
2022/05/11 03:07:08;;;;;;;5.30;3.13;;;;;;;21.21;45.75;97254.44;5014490;28;20022;-30
2022/05/11 03:09:33;;;;;;;5.95;3.00;;;;;;;21.20;45.80;97248.16;5015340;28;20025;-32
2022/05/11 03:11:59;;;;;;;4.05;2.75;;;;;;;21.19;45.88;97252.16;5015021;28;20484;-30
2022/05/11 03:14:25;;;;;;;4.10;2.97;;;;;;;21.19;45.85;97251.41;5015314;28;20033;-31
2022/05/11 03:16:51;;;;;;;7.18;3.35;;;;;;;21.21;45.88;97254.44;5015147;28;20033;-30
2022/05/11 03:19:17;;;;;;;6.50;3.30;;;;;;;21.15;45.97;97257.81;5047193;28;20029;-31
2022/05/11 03:21:42;;;;;;;5.47;3.08;;;;;;;21.15;45.90;97260.59;5015030;28;20477;-30
2022/05/11 03:24:08;;;;;;;6.30;3.00;;;;;;;21.13;45.79;97263.09;5015109;28;20384;-30
2022/05/11 03:26:35;;;;;;;5.25;3.25;;;;;;;21.18;45.80;97261.63;5015291;28;20021;-30
2022/05/11 03:29:05;;;;;;;5.38;3.25;;;;;;;21.12;45.83;97255.28;5015093;28;20025;-30
2022/05/11 03:31:33;;;;;;;5.25;3.47;;;;;;;21.13;45.81;97252.06;5014761;28;20036;-31
2022/05/11 03:36:42;;;;;;;9.75;3.30;;;;;;;21.14;45.68;97256.31;5015240;28;20076;-31
2022/05/11 03:39:08;;;;;;;5.75;3.28;;;;;;;21.13;45.66;97259.56;5014960;28;20029;-32
2022/05/11 03:41:33;;;;;;;5.90;3.00;;;;;;;21.11;45.81;97257.28;5014824;28;20022;-30
2022/05/11 03:43:59;;;;;;;6.63;3.17;;;;;;;21.12;45.66;97256.03;5014768;28;20357;-30
2022/05/11 03:46:24;;;;;;;7.57;3.40;;;;;;;21.13;45.83;97265.84;5014642;28;20065;-30
2022/05/11 03:48:50;;;;;;;6.78;2.83;;;;;;;21.06;45.78;97268.97;5014677;28;20113;-30
2022/05/11 03:51:15;;;;;;;6.20;3.20;;;;;;;21.09;45.66;97270.00;5014576;28;20034;-30
2022/05/11 03:53:41;;;;;;;5.30;3.25;;;;;;;21.07;45.70;97266.97;5014472;28;20037;-30
2022/05/11 03:56:06;;;;;;;6.32;3.40;;;;;;;21.12;45.67;97271.84;5046413;28;20028;-30
2022/05/11 03:58:32;;;;;;;7.60;3.00;;;;;;;21.07;45.60;97276.00;5014507;28;20026;-30
2022/05/11 04:00:57;;;;;;;6.78;3.17;;;;;;;21.02;45.70;97279.41;5014421;28;20034;-32
2022/05/11 04:03:23;;;;;;;7.88;3.30;;;;;;;21.04;45.58;97276.94;5014234;28;20025;-30
2022/05/11 04:05:48;;;;;;;6.72;3.22;;;;;;;21.09;45.58;97270.78;5014348;28;20030;-30
2022/05/11 04:08:14;;;;;;;6.85;3.03;;;;;;;21.08;45.58;97277.53;5014386;28;20476;-30
2022/05/11 04:10:39;;;;;;;6.97;3.40;;;;;;;21.06;45.55;97268.97;5014376;28;20468;-30
2022/05/11 04:13:05;;;;;;;5.57;3.10;;;;;;;21.05;45.74;97269.44;5013826;28;20054;-30
2022/05/11 04:15:31;;;;;;;5.50;2.95;;;;;;;21.07;45.67;97266.97;5014137;28;20503;-30
2022/05/11 04:17:57;;;;;;;4.97;2.78;;;;;;;21.04;45.41;97267.91;5013856;28;20022;-30
2022/05/11 04:20:23;;;;;;;6.72;3.05;;;;;;;21.00;45.65;97272.88;5013995;28;20026;-30
2022/05/11 04:22:48;;;;;;;5.95;3.72;;;;;;;20.99;45.51;97280.38;5013951;28;20030;-30
2022/05/11 04:25:16;;;;;;;5.10;3.00;;;;;;;20.95;45.52;97273.53;5014007;28;20025;-30
2022/05/11 04:27:46;;;;;;;4.90;2.70;;;;;;;20.99;45.38;97271.34;5014054;28;20032;-31
2022/05/11 04:30:13;;;;;;;6.45;3.08;;;;;;;20.96;45.63;97270.31;5014031;28;20113;-32
2022/05/11 04:32:40;;;;;;;7.00;3.40;;;;;;;20.94;45.46;97275.53;5013979;28;20030;-30
2022/05/11 04:35:06;;;;;;;7.25;3.45;;;;;;;20.94;45.63;97275.53;5013895;28;20032;-30
2022/05/11 04:37:32;;;;;;;7.93;2.90;;;;;;;20.94;45.66;97281.03;5013740;28;20022;-30
2022/05/11 04:39:57;;;;;;;5.78;2.45;;;;;;;20.98;45.70;97276.09;5013767;28;20079;-30
2022/05/11 04:42:23;;;;;;;4.55;2.70;;;;;;;20.90;45.68;97269.44;5013708;28;20483;-31
2022/05/11 04:44:48;;;;;;;8.65;3.58;;;;;;;20.93;45.71;97273.25;5013603;28;20431;-32
2022/05/11 04:47:16;;;;;;;5.82;2.90;;;;;;;20.95;45.74;97279.81;5013808;28;20022;-30
2022/05/11 04:49:42;;;;;;;7.75;2.78;;;;;;;21.02;45.63;97275.91;5013492;28;20083;-30
2022/05/11 04:52:15;;;;;;;6.70;2.80;;;;;;;21.00;45.66;97273.63;5013550;28;20018;-30
2022/05/11 04:54:43;;;;;;;8.30;3.58;;;;;;;21.02;45.65;97282.19;5014129;28;20099;-30
2022/05/11 04:57:10;;;;;;;6.32;2.90;;;;;;;21.00;45.86;97283.91;5013375;28;20037;-30
2022/05/11 04:59:35;;;;;;;5.53;2.70;;;;;;;20.93;45.98;97287.03;5013600;28;20361;-30
2022/05/11 05:02:03;;;;;;;7.55;3.58;;;;;;;20.94;46.03;97291.31;5013646;28;20042;-31
2022/05/11 05:04:31;;;;;;;6.32;3.47;;;;;;;20.97;45.92;97295.88;5013623;28;20026;-30
2022/05/11 05:06:57;;;;;;;6.50;2.78;;;;;;;20.98;45.95;97292.66;5013620;28;20362;-30
2022/05/11 05:09:23;;;;;;;6.72;2.90;;;;;;;20.97;45.64;97295.88;5013476;28;20110;-31
2022/05/11 05:11:49;;;;;;;6.82;2.67;;;;;;;20.97;45.99;97291.13;5013428;28;20508;-30
2022/05/11 05:14:15;;;;;;;9.43;3.03;;;;;;;20.98;46.11;97291.88;5013688;28;20026;-30
2022/05/11 05:16:40;;;;;;;4.90;3.10;;;;;;;20.97;46.46;97293.13;5013546;28;20538;-30
2022/05/11 05:19:06;;;;;;;5.35;2.75;;;;;;;21.03;46.08;97300.25;5045526;28;20030;-31
2022/05/11 05:21:32;;;;;;;5.55;2.75;;;;;;;21.00;46.28;97300.44;5013464;28;20025;-30
2022/05/11 05:23:59;;;;;;;11.65;4.20;;;;;;;20.98;46.36;97300.94;5013289;28;20080;-30
2022/05/11 05:26:24;;;;;;;13.20;3.65;;;;;;;20.96;46.31;97300.63;5013378;28;20050;-30
2022/05/11 05:31:35;;;;;;;11.75;3.05;;;;;;;20.99;46.49;97305.22;5017323;28;20064;-31
2022/05/11 05:34:00;;;;;;;8.85;3.17;;;;;;;20.98;46.66;97300.94;5017161;28;20026;-30
2022/05/11 05:36:32;;;;;;;6.75;4.10;;;;;;;20.95;46.76;97309.38;5048859;28;20169;-30
2022/05/11 05:38:58;;;;;;;9.88;3.53;;;;;;;21.00;46.47;97311.47;4998859;28;20481;-30
2022/05/11 05:41:26;;;;;;;7.78;3.30;;;;;;;20.90;46.82;97301.75;4995491;28;20042;-31
2022/05/11 05:43:52;;;;;;;11.23;3.08;;;;;;;20.95;46.85;97309.38;4995579;28;20113;-31
2022/05/11 05:46:18;;;;;;;11.55;3.38;;;;;;;21.00;46.55;97306.72;4995410;28;20036;-30
2022/05/11 05:48:44;;;;;;;8.27;3.00;;;;;;;21.04;46.57;97320.31;4995423;28;20034;-30
2022/05/11 05:51:13;;;;;;;8.30;2.97;;;;;;;21.03;46.82;97316.03;4995029;28;20022;-31
2022/05/11 05:53:40;;;;;;;10.90;3.72;;;;;;;21.02;46.67;97320.78;4995238;28;20038;-30
2022/05/11 05:56:06;;;;;;;7.25;3.25;;;;;;;21.00;46.72;97317.75;4995258;28;20026;-30
2022/05/11 05:58:33;;;;;;;7.55;2.80;;;;;;;21.02;46.66;97326.28;4993574;28;20034;-32
2022/05/11 06:00:58;;;;;;;6.78;3.55;;;;;;;20.99;46.65;97323.75;4994711;28;20511;-30
2022/05/11 06:03:27;;;;;;;11.32;3.80;;;;;;;21.03;46.41;97321.53;4994898;28;20073;-31
2022/05/11 06:05:53;;;;;;;9.40;3.75;;;;;;;21.01;46.40;97324.03;4995148;28;20041;-30
2022/05/11 06:08:19;;;;;;;10.35;4.38;;;;;;;21.05;46.20;97330.13;4995149;28;20496;-31
2022/05/11 06:10:46;;;;;;;12.18;4.18;;;;;;;21.04;46.51;97326.59;4995041;28;20088;-31
2022/05/11 06:13:13;;;;;;;9.63;3.83;;;;;;;20.97;46.49;97340.00;4994612;28;20046;-30
2022/05/11 06:15:39;;;;;;;5.20;3.20;;;;;;;20.96;46.20;97330.97;4994945;28;20028;-30
2022/05/11 06:18:07;;;;;;;7.28;3.05;;;;;;;21.05;45.73;97339.16;4994842;28;20389;-30
2022/05/11 06:20:33;;;;;;;7.30;3.45;;;;;;;21.03;46.00;97338.09;4994759;28;20037;-30
2022/05/11 06:22:59;;;;;;;7.57;3.22;;;;;;;21.01;46.02;97335.06;4994726;28;20030;-30
2022/05/11 06:25:24;;;;;;;9.23;3.25;;;;;;;21.00;46.08;97339.06;4995138;28;20510;-31
2022/05/11 06:27:50;;;;;;;12.50;4.13;;;;;;;20.99;46.24;97338.31;4994327;28;20030;-30
2022/05/11 06:30:17;;;;;;;5.85;3.20;;;;;;;21.04;46.12;97339.63;4994684;28;20030;-31
2022/05/11 06:32:42;;;;;;;8.32;3.70;;;;;;;20.96;46.24;97336.47;4994756;28;20138;-30
2022/05/11 06:35:09;;;;;;;7.50;3.35;;;;;;;20.98;46.19;97336.78;4994384;28;20065;-31
2022/05/11 06:37:39;;;;;;;7.68;3.72;;;;;;;20.97;46.27;97335.25;4994319;28;20536;-30
2022/05/11 06:40:05;;;;;;;7.60;3.53;;;;;;;20.84;47.60;97339.50;4993590;28;20465;-31
2022/05/11 06:42:31;;;;;;;7.22;3.55;;;;;;;20.77;47.94;97337.88;4993730;28;20092;-30
2022/05/11 06:44:56;;;;;;;9.40;4.15;;;;;;;20.98;47.18;97338.75;4994363;28;20027;-30
2022/05/11 06:47:22;;;;;;;6.80;3.83;;;;;;;20.96;46.76;97339.25;4994247;28;20019;-30
2022/05/11 06:49:47;;;;;;;7.80;3.60;;;;;;;20.94;47.08;97333.44;4994317;28;20105;-30
2022/05/11 06:52:14;;;;;;;8.10;3.58;;;;;;;20.95;46.99;97342.47;4994066;28;20030;-30
2022/05/11 07:00:08;;;;;;;8.00;4.00;;;;;;;20.82;47.68;97334.47;4992124;28;20088;-31
2022/05/11 07:02:37;;;;;;;8.38;3.85;;;;;;;20.97;47.03;97340.75;4993581;28;20061;-33
2022/05/11 07:05:03;;;;;;;6.55;3.78;;;;;;;20.92;47.05;97335.91;4992767;28;20492;-30
2022/05/11 07:07:29;;;;;;;5.72;3.45;;;;;;;20.88;47.40;97343.59;4997396;28;20156;-31
2022/05/11 07:09:54;;;;;;;5.10;3.47;;;;;;;20.88;47.19;97338.09;5013254;28;20025;-30
2022/05/11 07:12:21;;;;;;;4.88;3.42;;;;;;;20.91;47.38;97336.38;5013318;28;20093;-31
2022/05/11 07:14:53;;;;;;;6.05;3.40;;;;;;;20.92;47.03;97335.91;5013490;28;20026;-30
2022/05/11 07:17:44;;;;;;;5.63;3.50;;;;;;;20.93;47.04;97342.16;5013164;28;20041;-30
2022/05/11 07:20:21;;;;;;;5.15;3.83;;;;;;;20.96;47.09;97339.25;5013286;28;20034;-31
2022/05/11 07:22:47;;;;;;;6.38;3.70;;;;;;;20.85;47.91;97338.28;5013239;28;20026;-30
2022/05/11 07:25:15;;;;;;;4.97;3.85;;;;;;;20.84;47.60;97343.03;5013031;28;20447;-31
2022/05/11 07:27:43;;;;;;;6.88;3.88;;;;;;;20.85;47.51;97338.28;5012628;28;20033;-30
2022/05/11 07:30:11;;;;;;;8.40;3.95;;;;;;;20.85;47.11;97347.31;5012908;28;20029;-31
2022/05/11 07:32:37;;;;;;;4.90;3.65;;;;;;;20.94;47.09;97341.69;5013113;28;20034;-30
2022/05/11 07:35:03;;;;;;;5.65;3.35;;;;;;;20.96;46.95;97339.25;5012448;28;20026;-30
2022/05/11 07:37:29;;;;;;;5.78;3.55;;;;;;;20.66;47.01;97332.91;5012658;28;20040;-30
2022/05/11 07:39:56;;;;;;;6.80;3.72;;;;;;;20.87;46.67;97341.31;5012499;28;20041;-30
2022/05/11 07:42:22;;;;;;;7.43;3.38;;;;;;;20.96;46.52;97344.00;5012924;28;20037;-30
2022/05/11 07:44:48;;;;;;;8.07;3.95;;;;;;;20.66;45.98;97341.16;5012699;28;20022;-30
2022/05/11 07:47:13;;;;;;;4.28;3.08;;;;;;;20.89;46.49;97344.38;5012684;28;20419;-30
2022/05/11 07:49:39;;;;;;;5.80;3.72;;;;;;;20.89;46.55;97345.13;5012510;28;20021;-30
2022/05/11 07:52:06;;;;;;;5.05;3.42;;;;;;;20.94;46.36;97347.22;5011940;28;20025;-30
2022/05/11 07:54:32;;;;;;;4.25;3.38;;;;;;;20.96;46.34;97341.22;5012499;28;20091;-31
2022/05/11 07:59:59;;;;;;;7.28;3.67;;;;;;;21.02;46.17;97353.88;5010766;28;20599;-30
2022/05/11 08:02:32;;;;;;;4.57;3.60;;;;;;;20.99;46.18;97343.81;5012088;28;20071;-30
2022/05/11 08:05:00;;;;;;;8.27;3.72;;;;;;;20.95;46.38;97350.75;5012253;28;20042;-30
2022/05/11 08:07:29;;;;;;;3.95;3.40;;;;;;;20.95;46.35;97345.97;5012364;28;20029;-30
2022/05/11 08:09:59;;;;;;;6.60;3.60;;;;;;;20.93;46.02;97345.69;5012236;28;20060;-30
2022/05/11 08:12:25;;;;;;;5.63;3.50;;;;;;;20.95;46.21;97354.25;5012039;28;20041;-30
2022/05/11 08:14:51;;;;;;;5.55;3.38;;;;;;;21.01;45.78;97357.13;5011856;28;20030;-30
2022/05/11 08:17:32;;;;;;;5.80;3.50;;;;;;;20.96;45.94;97350.28;5012000;28;20475;-31
2022/05/11 08:20:01;;;;;;;7.80;3.47;;;;;;;21.05;45.44;97354.94;5011849;28;20060;-32
2022/05/11 08:22:28;;;;;;;5.97;3.42;;;;;;;21.03;45.68;97355.41;5011980;28;20021;-30
2022/05/11 08:24:56;;;;;;;4.00;3.60;;;;;;;21.04;45.50;97361.69;5011777;28;20025;-31
2022/05/11 08:27:28;;;;;;;11.05;3.88;;;;;;;20.43;46.17;97358.47;5011813;28;20054;-29
2022/05/11 08:35:24;;;;;;;9.13;4.28;;;;;;;21.04;44.86;97367.19;5011272;28;20407;-29
2022/05/11 08:37:49;;;;;;;10.75;4.22;;;;;;;21.11;44.91;97366.84;5013262;28;20026;-29
2022/05/11 08:40:31;;;;;;;9.98;4.03;;;;;;;21.08;45.05;97368.53;5013494;28;20029;-29
2022/05/11 08:42:57;;;;;;;8.82;3.63;;;;;;;20.97;45.18;97373.84;5013788;28;20040;-30
2022/05/11 08:45:28;;;;;;;7.30;3.65;;;;;;;21.03;45.20;97366.44;5013777;28;20026;-30
2022/05/11 08:47:54;;;;;;;9.25;4.78;;;;;;;21.02;45.11;97370.44;5013727;28;20018;-29
2022/05/11 08:50:26;;;;;;;7.22;3.53;;;;;;;21.04;45.21;97372.72;5013715;28;20026;-30
2022/05/11 08:52:59;;;;;;;6.50;3.85;;;;;;;20.97;45.48;97373.84;5013638;28;20029;-29
2022/05/11 08:55:37;;;;;;;5.85;3.67;;;;;;;20.97;45.29;97368.34;5013120;28;20109;-30
2022/05/11 08:58:09;;;;;;;5.50;3.42;;;;;;;21.02;45.22;97378.69;5013696;28;20057;-30
2022/05/11 09:00:39;;;;;;;7.75;3.53;;;;;;;21.04;45.20;97372.72;5013920;28;20061;-31
2022/05/11 09:03:15;;;;;;;7.07;3.38;;;;;;;21.02;45.01;97370.44;5013304;28;20029;-29
2022/05/11 09:05:40;;;;;;;7.55;3.22;;;;;;;21.00;45.36;97372.91;5013362;28;20481;-30
2022/05/11 09:08:10;;;;;;;6.50;3.63;;;;;;;21.04;44.88;97379.00;5013390;28;20025;-31
2022/05/11 09:10:37;;;;;;;8.23;3.55;;;;;;;21.01;45.17;97373.69;5013476;28;20060;-31
2022/05/11 09:13:13;;;;;;;8.07;3.90;;;;;;;21.06;45.15;97373.00;5013196;28;20129;-31
2022/05/11 09:15:47;;;;;;;11.30;3.95;;;;;;;21.07;44.77;97375.28;5013851;28;20024;-31
2022/05/11 09:18:13;;;;;;;6.97;3.60;;;;;;;21.06;45.00;97376.53;5013456;28;20365;-29
2022/05/11 09:20:46;;;;;;;7.80;3.70;;;;;;;21.05;45.12;97380.50;5013354;28;20030;-29
2022/05/11 09:23:12;;;;;;;6.70;3.67;;;;;;;21.07;44.91;97371.78;5013273;28;20105;-29
2022/05/11 09:25:57;;;;;;;6.93;3.75;;;;;;;21.11;44.71;97375.13;5013322;28;20109;-29
2022/05/11 09:28:27;;;;;;;7.90;3.40;;;;;;;21.12;44.94;97371.88;5013304;28;20097;-30
2022/05/11 09:31:17;;;;;;;8.70;3.95;;;;;;;21.10;44.74;97374.34;5013250;28;20033;-31
2022/05/11 09:33:59;;;;;;;6.25;3.60;;;;;;;21.09;44.87;97370.06;5012163;28;20564;-30
2022/05/11 09:36:51;;;;;;;8.82;3.45;;;;;;;21.04;44.98;97383.75;5013279;28;20092;-30
2022/05/11 09:39:18;;;;;;;6.00;3.88;;;;;;;21.08;45.28;97374.06;5013450;28;20115;-30
2022/05/11 09:41:53;;;;;;;6.95;3.72;;;;;;;21.03;45.04;97382.22;5013044;28;20041;-30
2022/05/11 09:44:41;;;;;;;9.43;3.95;;;;;;;21.04;45.34;97379.00;5013202;28;20093;-29
2022/05/11 09:47:30;;;;;;;4.90;3.00;;;;;;;21.03;45.34;97374.72;5013323;28;20018;-30
2022/05/11 09:50:14;;;;;;;6.50;3.90;;;;;;;20.94;45.96;97374.03;5013103;28;20032;-30
2022/05/11 09:52:39;;;;;;;5.15;3.50;;;;;;;21.00;45.57;97378.44;5013240;28;20026;-29
2022/05/11 09:55:28;;;;;;;5.90;3.72;;;;;;;21.05;45.48;97380.50;5013055;28;20488;-29
2022/05/11 09:57:59;;;;;;;5.38;3.58;;;;;;;21.12;45.50;97380.16;5013082;28;20030;-30
2022/05/11 10:00:42;;;;;;;4.93;3.47;;;;;;;21.16;45.45;97382.72;5013179;28;20388;-30
2022/05/11 10:03:12;;;;;;;6.97;3.55;;;;;;;21.17;45.49;97376.72;5012879;28;20026;-29
2022/05/11 10:05:39;;;;;;;5.85;3.60;;;;;;;21.06;45.92;97382.03;5013057;28;20096;-29
2022/05/11 10:08:23;;;;;;;9.82;3.95;;;;;;;20.95;46.30;97372.78;5012805;28;20369;-30
2022/05/11 10:10:56;;;;;;;6.97;3.33;;;;;;;21.14;45.95;97379.69;5012936;28;20033;-30
2022/05/11 10:13:55;;;;;;;8.45;3.38;;;;;;;21.10;45.83;97377.13;5012969;28;20108;-30
2022/05/11 10:22:35;;;;;;;8.05;4.18;;;;;;;21.09;46.01;97381.09;5016710;28;20400;-30
2022/05/11 10:25:39;;;;;;;4.47;3.55;;;;;;;21.09;46.17;97374.81;5016250;28;20080;-30
2022/05/11 10:28:14;;;;;;;6.38;3.47;;;;;;;21.10;45.90;97371.59;5014088;28;20117;-30
2022/05/11 10:30:46;;;;;;;5.50;3.70;;;;;;;21.05;46.10;97375.00;5016208;28;20407;-29
2022/05/11 10:33:30;;;;;;;5.27;3.43;;;;;;;21.03;46.29;97371.94;5047918;28;20034;-32
2022/05/11 10:36:14;;;;;;;5.53;3.55;;;;;;;21.04;46.17;97373.47;5014690;28;20029;-29
2022/05/11 10:39:00;;;;;;;8.00;3.90;;;;;;;21.05;45.95;97382.50;5013829;28;20080;-29
2022/05/11 10:41:52;;;;;;;5.93;3.53;;;;;;;21.12;45.85;97369.13;5015902;28;20025;-30
2022/05/11 10:44:32;;;;;;;6.63;3.58;;;;;;;21.15;45.51;97368.16;4997694;28;20034;-29
2022/05/11 10:47:22;;;;;;;8.95;3.67;;;;;;;21.06;45.70;97370.25;5015850;28;20366;-29
2022/05/11 10:49:59;;;;;;;6.03;3.38;;;;;;;21.11;45.60;97366.84;5015746;28;20519;-29
2022/05/11 10:52:24;;;;;;;6.45;3.63;;;;;;;21.11;45.76;97367.59;5015916;28;20029;-29
2022/05/11 10:55:17;;;;;;;4.63;3.00;;;;;;;21.08;45.52;97370.53;5015597;28;20080;-29
2022/05/11 10:58:01;;;;;;;5.80;3.30;;;;;;;21.05;45.53;97374.25;5015699;28;20030;-31
2022/05/11 11:00:30;;;;;;;6.60;3.50;;;;;;;21.11;45.24;97373.13;5015616;28;20026;-30
2022/05/11 11:03:25;;;;;;;6.97;3.45;;;;;;;21.13;45.21;97367.13;5015631;28;20080;-30
2022/05/11 11:09:18;;;;;;;5.93;3.55;;;;;;;21.13;45.39;97370.66;5015651;28;20032;-29
2022/05/11 11:11:52;;;;;;;6.35;3.28;;;;;;;21.11;45.08;97367.59;5015147;28;20042;-29
2022/05/11 11:14:31;;;;;;;5.57;3.42;;;;;;;21.19;45.02;97368.00;5015371;28;20037;-30
2022/05/11 11:16:57;;;;;;;6.05;3.42;;;;;;;21.26;44.63;97359.38;5015408;28;20037;-29
2022/05/11 11:19:24;;;;;;;5.03;3.30;;;;;;;21.26;44.82;97359.38;5015366;28;20480;-30
2022/05/11 11:21:51;;;;;;;8.15;3.30;;;;;;;21.25;44.68;97354.31;5015119;28;20041;-29
2022/05/11 11:24:22;;;;;;;6.32;3.33;;;;;;;21.14;44.85;97357.63;5015182;28;20058;-30
2022/05/11 11:26:49;;;;;;;8.00;3.75;;;;;;;21.11;44.92;97356.56;5014263;28;20017;-29
2022/05/11 11:29:18;;;;;;;6.25;3.30;;;;;;;21.22;44.58;97352.50;5014984;28;20026;-30
2022/05/11 11:32:05;;;;;;;5.22;3.60;;;;;;;21.16;44.74;97347.63;5015051;28;20060;-31
2022/05/11 11:34:37;;;;;;;6.80;3.17;;;;;;;21.13;44.84;97356.88;5014803;28;20115;-29
2022/05/11 11:37:27;;;;;;;9.30;3.67;;;;;;;21.22;44.56;97349.75;5014886;28;20036;-29
2022/05/11 11:39:58;;;;;;;7.85;3.40;;;;;;;21.30;44.58;97346.13;5014908;28;20025;-31
2022/05/11 11:42:44;;;;;;;5.22;3.10;;;;;;;21.27;44.63;97349.06;5046760;28;20391;-29
2022/05/11 11:45:31;;;;;;;5.68;3.33;;;;;;;21.24;44.60;97347.28;5014721;28;20025;-30
2022/05/11 11:48:18;;;;;;;8.07;3.65;;;;;;;21.26;44.81;97345.59;5014735;28;20039;-30
2022/05/11 11:50:49;;;;;;;5.05;3.03;;;;;;;21.19;44.72;97356.97;5014655;28;20057;-30
2022/05/11 11:53:50;;;;;;;6.28;3.25;;;;;;;21.23;44.87;97348.53;5014466;28;20480;-29
2022/05/11 11:56:25;;;;;;;6.63;3.30;;;;;;;21.31;44.70;97346.91;5007310;28;20460;-30
2022/05/11 11:59:23;;;;;;;5.00;3.25;;;;;;;21.24;44.56;97337.00;5046170;28;20029;-29
2022/05/11 12:01:51;;;;;;;6.05;2.95;;;;;;;21.32;43.94;97337.38;5009382;28;20046;-30
2022/05/11 12:04:35;;;;;;;7.05;3.70;;;;;;;21.21;43.91;97326.16;5014013;28;20086;-29
2022/05/11 12:15:37;;;;;;;4.75;3.25;;;;;;;21.21;43.81;97332.44;5014487;28;20029;-29
2022/05/11 12:18:24;;;;;;;5.32;3.22;;;;;;;21.26;43.77;97334.53;5013973;28;20018;-29
2022/05/11 12:20:50;;;;;;;6.68;2.75;;;;;;;21.35;43.51;97336.44;5014034;28;20022;-29
2022/05/11 12:23:23;;;;;;;6.43;2.95;;;;;;;21.41;43.08;97329.75;5014171;28;20066;-31
2022/05/11 12:25:53;;;;;;;;;;;;;;;21.34;43.34;97332.16;5014613;28;20081;-30
2022/05/11 12:28:22;;;;;;;5.50;2.97;;;;;;;21.31;43.09;97330.34;5014128;28;19974;-30